Time;durP1;ratioP1;P1;durP2;ratioP2;P2;SDS_P1;SDS_P2;PMS_P1;PMS_P2;Temp;Humidity;BMP_temperature;BMP_pressure;BME280_temperature;BME280_humidity;BME280_pressure;Samples;Min_cycle;Max_cycle;Signal;HPM_P1;HPM_P2
2022/01/16 00:04:06;;;;;;;10.85;5.20;;;-0.40;99.90;;;;;;4946551;28;20061;-61
2022/01/16 00:04:54;;;;;;;8.30;3.88;;;-0.30;99.90;;;;;;4948176;28;20492;-61
2022/01/16 00:07:20;;;;;;;11.55;4.10;;;-0.30;99.90;;;;;;4940045;28;20088;-61
2022/01/16 00:09:45;;;;;;;10.50;4.72;;;-0.30;99.90;;;;;;4952118;28;20051;-62
2022/01/16 00:12:11;;;;;;;4.72;2.70;;;-0.40;99.90;;;;;;4947011;29;20031;-62
2022/01/16 00:14:38;;;;;;;8.60;3.50;;;-0.50;99.90;;;;;;4946736;28;20042;-62
2022/01/16 00:17:04;;;;;;;11.45;4.70;;;-0.60;99.90;;;;;;4947217;29;20035;-61
2022/01/16 00:19:30;;;;;;;8.32;3.33;;;-0.50;99.90;;;;;;4953117;29;20074;-61
2022/01/16 00:21:55;;;;;;;12.25;3.05;;;-0.40;99.90;;;;;;4932382;29;20027;-61
2022/01/16 00:24:21;;;;;;;7.13;2.85;;;-0.40;99.90;;;;;;4947234;29;20027;-61
2022/01/16 00:26:47;;;;;;;8.23;3.70;;;-0.20;99.90;;;;;;4948192;28;20031;-61
2022/01/16 00:29:12;;;;;;;11.05;2.97;;;-0.20;99.90;;;;;;4946336;29;20051;-61
2022/01/16 00:31:40;;;;;;;7.30;3.40;;;-0.40;99.90;;;;;;4945263;28;20390;-62
2022/01/16 00:34:07;;;;;;;5.10;2.58;;;-0.50;99.90;;;;;;4948856;29;20023;-61
2022/01/16 00:36:32;;;;;;;6.13;2.80;;;-0.50;99.90;;;;;;4945746;28;20166;-61
2022/01/16 00:38:58;;;;;;;6.45;3.10;;;-0.60;99.90;;;;;;4944926;28;20106;-61
2022/01/16 00:41:24;;;;;;;4.20;2.47;;;-0.40;99.90;;;;;;4943226;28;20034;-61
2022/01/16 00:43:53;;;;;;;7.38;3.30;;;-0.40;99.90;;;;;;4946842;28;20042;-61
2022/01/16 00:46:19;;;;;;;6.57;3.53;;;-0.40;99.90;;;;;;4945625;28;20028;-61
2022/01/16 00:48:46;;;;;;;8.43;3.55;;;-0.40;99.90;;;;;;4943449;28;20020;-61
2022/01/16 00:51:11;;;;;;;3.90;2.30;;;-0.40;99.90;;;;;;4947889;28;20058;-61
2022/01/16 00:53:39;;;;;;;7.78;3.85;;;-0.30;99.90;;;;;;4948774;28;20027;-61
2022/01/16 00:56:06;;;;;;;5.95;3.25;;;-0.30;99.90;;;;;;4945411;28;20373;-61
2022/01/16 00:58:32;;;;;;;9.52;3.65;;;-0.40;99.90;;;;;;4947032;28;20027;-62
2022/01/16 01:00:57;;;;;;;5.88;3.20;;;-0.40;99.90;;;;;;4946320;28;20110;-62
2022/01/16 01:03:25;;;;;;;4.40;2.38;;;-0.40;99.90;;;;;;4944534;28;20424;-61
2022/01/16 01:05:50;;;;;;;4.63;2.35;;;-0.50;99.90;;;;;;4951630;28;20054;-61
2022/01/16 01:08:17;;;;;;;5.47;3.83;;;-0.50;99.90;;;;;;4943518;28;20028;-61
2022/01/16 01:10:46;;;;;;;4.03;1.95;;;-0.60;99.90;;;;;;4947955;28;20062;-61
2022/01/16 01:13:23;;;;;;;6.53;2.50;;;-0.60;99.90;;;;;;4950231;28;20023;-62
2022/01/16 01:15:52;;;;;;;6.63;3.53;;;-0.50;99.90;;;;;;4947098;28;20268;-61
2022/01/16 01:18:20;;;;;;;6.97;3.38;;;-0.40;99.90;;;;;;4955891;28;20050;-61
2022/01/16 01:20:49;;;;;;;6.28;3.00;;;0.00;99.90;;;;;;4949668;28;20073;-61
2022/01/16 01:23:15;;;;;;;6.68;3.55;;;0.00;99.90;;;;;;4946621;28;20055;-61
2022/01/16 01:25:44;;;;;;;8.57;3.85;;;0.10;99.90;;;;;;4944759;29;20094;-61
2022/01/16 01:28:11;;;;;;;12.07;3.50;;;-0.10;99.90;;;;;;4946277;28;20455;-61
2022/01/16 01:30:39;;;;;;;8.10;2.50;;;-0.20;99.90;;;;;;4944829;28;20148;-61
2022/01/16 01:33:05;;;;;;;5.22;2.85;;;-0.10;99.90;;;;;;4944872;29;20024;-61
2022/01/16 01:35:38;;;;;;;14.43;5.70;;;-0.10;99.90;;;;;;4948168;28;20035;-61
2022/01/16 01:38:05;;;;;;;3.30;2.08;;;-0.20;99.90;;;;;;4941446;28;20074;-61
2022/01/16 01:40:31;;;;;;;6.90;2.85;;;0.20;99.90;;;;;;4948788;28;20376;-60
2022/01/16 01:51:08;;;;;;;5.15;2.22;;;0.50;99.90;;;;;;4948121;28;20034;-61
2022/01/16 01:53:35;;;;;;;5.35;1.88;;;0.70;99.90;;;;;;4944179;28;20051;-61
2022/01/16 01:56:02;;;;;;;3.90;2.08;;;0.90;99.90;;;;;;4946874;28;20035;-61
2022/01/16 01:58:28;;;;;;;3.63;1.88;;;1.10;99.90;;;;;;4957944;28;20023;-61
2022/01/16 02:00:54;;;;;;;3.25;2.35;;;1.10;99.90;;;;;;4949353;28;20043;-61
2022/01/16 02:03:33;;;;;;;3.22;1.90;;;1.30;99.90;;;;;;4950056;28;20126;-61
2022/01/16 02:05:58;;;;;;;5.32;2.55;;;1.40;99.90;;;;;;4948742;28;20114;-61
2022/01/16 02:08:24;;;;;;;2.03;1.70;;;1.50;99.90;;;;;;4943338;28;20114;-61
2022/01/16 02:10:50;;;;;;;3.83;2.25;;;1.50;99.90;;;;;;4950191;28;20027;-61
2022/01/16 02:13:24;;;;;;;4.20;2.22;;;1.60;99.90;;;;;;4951276;28;20453;-61
2022/01/16 02:32:12;;;;;;;4.35;2.85;;;2.00;99.90;;;;;;4944576;28;20106;-61
2022/01/16 02:34:42;;;;;;;6.07;2.55;;;2.00;99.90;;;;;;4947271;28;20046;-61
2022/01/16 02:37:11;;;;;;;3.92;2.15;;;2.00;99.90;;;;;;4946234;28;20035;-61
2022/01/16 02:39:42;;;;;;;12.55;1.95;;;2.10;99.90;;;;;;4943406;29;20464;-61
2022/01/16 02:42:10;;;;;;;8.48;3.72;;;2.10;99.90;;;;;;4947436;28;20031;-61
2022/01/16 02:44:48;;;;;;;4.50;3.03;;;2.10;99.90;;;;;;4946276;28;20031;-61
2022/01/16 02:47:19;;;;;;;3.60;1.67;;;2.10;99.90;;;;;;4946062;28;20040;-61
2022/01/16 02:49:48;;;;;;;5.22;2.83;;;2.10;99.90;;;;;;4923020;29;20529;-61
2022/01/16 02:52:17;;;;;;;8.82;3.97;;;2.10;99.90;;;;;;4944898;28;20034;-61
2022/01/16 02:54:46;;;;;;;7.70;3.23;;;2.10;99.90;;;;;;4947487;28;20031;-61
2022/01/16 02:57:15;;;;;;;3.20;2.00;;;2.10;99.90;;;;;;4944642;28;20107;-61
2022/01/16 02:59:48;;;;;;;7.65;2.95;;;2.10;99.90;;;;;;4946804;28;20023;-60
2022/01/16 03:02:14;;;;;;;5.13;2.25;;;2.10;99.90;;;;;;4928002;29;20036;-61
2022/01/16 03:04:40;;;;;;;6.53;3.53;;;2.20;99.90;;;;;;4946096;29;20106;-60
2022/01/16 03:07:06;;;;;;;5.03;2.45;;;2.10;99.90;;;;;;4941163;28;20114;-61
2022/01/16 03:10:30;;;;;;;7.68;4.05;;;2.10;99.90;;;;;;4947651;28;20032;-60
2022/01/16 03:12:17;;;;;;;5.45;2.33;;;2.10;99.90;;;;;;4934107;29;20040;-61
2022/01/16 03:14:43;;;;;;;10.65;3.70;;;2.20;99.90;;;;;;4944905;28;20032;-61
2022/01/16 03:17:10;;;;;;;6.93;3.33;;;2.20;99.90;;;;;;4947038;28;20027;-61
2022/01/16 03:22:37;;;;;;;6.32;3.10;;;2.20;99.90;;;;;;4913697;29;20036;-61
2022/01/16 03:25:03;;;;;;;8.25;3.10;;;2.10;99.90;;;;;;4937755;28;20039;-61
2022/01/16 03:27:28;;;;;;;6.60;1.92;;;2.10;99.90;;;;;;4946755;29;20047;-61
2022/01/16 03:29:57;;;;;;;5.95;3.17;;;2.20;99.90;;;;;;4948896;28;20396;-60
2022/01/16 03:32:23;;;;;;;9.27;1.88;;;2.20;99.90;;;;;;4950004;28;20022;-61
2022/01/16 03:34:49;;;;;;;7.05;3.30;;;2.20;99.90;;;;;;4946368;28;20379;-61
2022/01/16 03:37:15;;;;;;;11.70;4.13;;;2.20;99.90;;;;;;4943467;28;20027;-61
2022/01/16 03:39:40;;;;;;;10.02;3.42;;;2.10;99.90;;;;;;4949791;28;20419;-61
2022/01/16 03:42:07;;;;;;;6.43;3.60;;;2.20;99.90;;;;;;4947576;28;20034;-60
2022/01/16 03:44:33;;;;;;;8.23;3.95;;;2.10;99.90;;;;;;4946362;28;20033;-61
2022/01/16 03:47:00;;;;;;;6.22;2.95;;;2.10;99.90;;;;;;4935575;29;20125;-61
2022/01/16 03:49:28;;;;;;;12.48;4.97;;;2.00;99.90;;;;;;4946371;28;20023;-61
2022/01/16 03:51:55;;;;;;;10.88;5.15;;;2.10;99.90;;;;;;4945869;28;20020;-61
2022/01/16 03:54:23;;;;;;;7.20;2.97;;;2.00;99.90;;;;;;4949984;28;20118;-61
2022/01/16 03:56:50;;;;;;;10.90;3.88;;;2.00;99.90;;;;;;4944603;28;20645;-61
2022/01/16 03:59:16;;;;;;;4.68;2.58;;;2.00;99.90;;;;;;4948524;28;20035;-61
2022/01/16 04:01:43;;;;;;;7.65;3.70;;;2.00;99.90;;;;;;4950053;28;20053;-61
2022/01/16 04:04:09;;;;;;;6.32;3.50;;;2.00;99.90;;;;;;4943296;29;20118;-61
2022/01/16 04:06:34;;;;;;;17.08;4.93;;;2.10;99.90;;;;;;4947074;28;20146;-61
2022/01/16 04:09:02;;;;;;;9.43;4.18;;;2.10;99.90;;;;;;4929046;29;20118;-61
2022/01/16 04:11:29;;;;;;;8.43;4.70;;;2.10;99.90;;;;;;4951301;28;20026;-61
2022/01/16 04:14:05;;;;;;;11.43;4.75;;;2.10;99.90;;;;;;4947135;28;20027;-61
2022/01/16 04:16:31;;;;;;;7.28;4.07;;;2.00;99.90;;;;;;4949234;28;20039;-61
2022/01/16 04:18:57;;;;;;;7.55;3.15;;;2.00;99.90;;;;;;4946633;29;20028;-61
2022/01/16 04:21:26;;;;;;;4.65;2.85;;;2.00;99.90;;;;;;4945030;28;20054;-61
2022/01/16 04:23:53;;;;;;;9.95;4.57;;;2.10;99.90;;;;;;4947403;28;20031;-61
2022/01/16 04:26:19;;;;;;;8.32;3.28;;;2.00;99.90;;;;;;4948279;28;20531;-61
2022/01/16 04:28:46;;;;;;;13.77;4.07;;;2.20;99.90;;;;;;4945376;28;20043;-61
2022/01/16 04:31:13;;;;;;;15.55;4.85;;;2.10;99.90;;;;;;4942351;28;20032;-61
2022/01/16 04:33:39;;;;;;;9.88;4.60;;;2.10;99.90;;;;;;4946235;28;20556;-61
2022/01/16 04:36:05;;;;;;;13.82;4.57;;;2.10;99.90;;;;;;4948285;28;20035;-61
2022/01/16 04:38:33;;;;;;;10.05;4.75;;;2.10;99.90;;;;;;4941422;28;20027;-61
2022/01/16 04:43:49;;;;;;;18.65;4.07;;;2.10;99.90;;;;;;4944109;28;20063;-61
2022/01/16 04:46:16;;;;;;;6.00;2.17;;;2.10;99.90;;;;;;4946804;28;20038;-61
2022/01/16 04:48:41;;;;;;;12.20;4.22;;;2.00;99.90;;;;;;4948228;28;20024;-62
2022/01/16 04:51:07;;;;;;;7.88;4.57;;;2.00;99.90;;;;;;4951535;28;20502;-61
2022/01/16 04:53:33;;;;;;;10.90;3.30;;;2.00;99.90;;;;;;4945645;28;20020;-61
2022/01/16 04:55:59;;;;;;;17.08;5.43;;;2.00;99.90;;;;;;4947376;28;20030;-60
2022/01/16 04:58:25;;;;;;;6.60;2.20;;;2.00;99.90;;;;;;4946728;28;20493;-61
2022/01/16 05:00:50;;;;;;;10.55;3.63;;;2.00;99.90;;;;;;4945747;28;20058;-62
2022/01/16 05:03:16;;;;;;;6.60;2.30;;;2.20;99.90;;;;;;4945883;29;20027;-61
2022/01/16 05:05:41;;;;;;;13.52;4.05;;;2.20;99.90;;;;;;4945378;28;20609;-61
2022/01/16 05:08:07;;;;;;;23.35;5.50;;;2.20;99.90;;;;;;4944718;28;20019;-61
2022/01/16 05:10:33;;;;;;;7.47;4.47;;;2.30;99.90;;;;;;4945769;28;20083;-61
2022/01/16 05:13:25;;;;;;;9.45;4.22;;;2.30;99.90;;;;;;4943877;28;20386;-62
2022/01/16 05:18:28;;;;;;;5.25;2.78;;;2.30;99.90;;;;;;4951225;28;20090;-61
2022/01/16 05:20:54;;;;;;;10.07;3.40;;;2.40;99.90;;;;;;4948439;28;20455;-61
2022/01/16 05:23:19;;;;;;;7.10;2.28;;;2.40;99.90;;;;;;4951248;28;20118;-61
2022/01/16 05:25:45;;;;;;;13.20;4.65;;;2.50;99.90;;;;;;4944501;28;20042;-61
2022/01/16 05:28:10;;;;;;;12.55;4.18;;;2.50;99.90;;;;;;4939745;28;20048;-61
2022/01/16 05:30:36;;;;;;;7.65;4.20;;;2.60;99.90;;;;;;4958038;28;20030;-61
2022/01/16 05:33:01;;;;;;;10.82;4.35;;;2.60;99.90;;;;;;4958499;28;20026;-61
2022/01/16 05:35:27;;;;;;;8.05;4.82;;;2.60;99.90;;;;;;4954154;28;20035;-61
2022/01/16 05:37:53;;;;;;;19.50;6.60;;;2.60;99.90;;;;;;4961289;28;20027;-61
2022/01/16 05:40:18;;;;;;;23.98;8.32;;;2.60;99.90;;;;;;4948538;28;20404;-61
2022/01/16 05:42:45;;;;;;;10.13;4.30;;;2.60;99.90;;;;;;4949950;28;20050;-61
2022/01/16 05:45:11;;;;;;;11.98;6.82;;;2.70;99.90;;;;;;4963121;28;20027;-62
2022/01/16 05:47:36;;;;;;;9.50;3.92;;;2.70;99.90;;;;;;4961911;28;20467;-61
2022/01/16 05:50:03;;;;;;;23.17;7.95;;;2.70;99.90;;;;;;4959360;28;20015;-61
2022/01/16 05:52:29;;;;;;;10.00;4.22;;;2.70;99.90;;;;;;4957722;28;20503;-62
2022/01/16 05:54:54;;;;;;;13.80;5.30;;;2.80;99.90;;;;;;4942139;28;20167;-62
2022/01/16 05:57:20;;;;;;;12.93;4.97;;;2.70;99.90;;;;;;4960058;28;20023;-61
2022/01/16 05:59:45;;;;;;;14.82;5.43;;;2.70;99.90;;;;;;4962992;28;20038;-61
2022/01/16 06:02:12;;;;;;;11.25;5.38;;;2.80;99.90;;;;;;4964331;28;20030;-61
2022/01/16 06:04:37;;;;;;;16.95;5.55;;;2.80;99.90;;;;;;4959303;28;20031;-61
2022/01/16 06:07:05;;;;;;;12.30;4.60;;;2.80;99.90;;;;;;4958625;28;20482;-61
2022/01/16 06:09:30;;;;;;;13.38;5.43;;;2.80;99.90;;;;;;4959470;28;20121;-62
2022/01/16 06:11:57;;;;;;;14.32;7.30;;;2.80;99.90;;;;;;4957223;28;20051;-61
2022/01/16 06:14:23;;;;;;;9.60;5.40;;;2.90;99.90;;;;;;4947296;28;20024;-61
2022/01/16 06:16:50;;;;;;;18.45;7.25;;;2.90;99.90;;;;;;4947251;28;20564;-61
2022/01/16 06:19:16;;;;;;;21.40;8.05;;;2.90;99.90;;;;;;4957458;28;20105;-61
2022/01/16 06:21:42;;;;;;;11.77;5.13;;;2.90;99.90;;;;;;4955667;28;20137;-61
2022/01/16 06:24:07;;;;;;;19.80;8.10;;;2.90;99.90;;;;;;4958561;28;20023;-61
2022/01/16 06:26:33;;;;;;;15.80;5.90;;;3.00;99.90;;;;;;4964301;28;20038;-61
2022/01/16 06:28:59;;;;;;;10.45;6.32;;;3.00;99.90;;;;;;4961636;28;20041;-61
2022/01/16 06:31:25;;;;;;;19.85;5.90;;;2.90;99.90;;;;;;4956185;28;20037;-62
2022/01/16 06:33:51;;;;;;;18.88;7.53;;;2.90;99.90;;;;;;4960402;28;20035;-61
2022/01/16 06:36:17;;;;;;;18.25;6.00;;;3.00;99.90;;;;;;4952100;28;20405;-61
2022/01/16 06:38:42;;;;;;;15.93;6.70;;;3.00;99.90;;;;;;4951714;28;20042;-61
2022/01/16 06:41:09;;;;;;;15.95;6.65;;;3.00;99.90;;;;;;4944866;28;20035;-61
2022/01/16 06:43:35;;;;;;;19.08;5.80;;;3.00;99.90;;;;;;4946042;28;20031;-61
2022/01/16 06:46:00;;;;;;;21.23;10.40;;;3.00;99.90;;;;;;4956300;28;20387;-61
2022/01/16 06:48:26;;;;;;;17.33;6.57;;;3.00;99.90;;;;;;4942975;28;20024;-61
2022/01/16 06:50:52;;;;;;;15.30;5.43;;;3.00;99.90;;;;;;4947855;28;20027;-61
2022/01/16 06:53:18;;;;;;;18.92;8.38;;;3.00;99.90;;;;;;4949370;28;20046;-61
2022/01/16 06:55:43;;;;;;;13.07;4.75;;;3.10;99.90;;;;;;4947446;28;20036;-62
2022/01/16 06:58:09;;;;;;;29.75;9.38;;;3.10;99.90;;;;;;4950361;28;20093;-61
2022/01/16 07:00:34;;;;;;;23.77;7.10;;;3.10;99.90;;;;;;4955002;28;20393;-61
2022/01/16 07:03:00;;;;;;;15.45;5.82;;;3.10;99.90;;;;;;4949042;28;20063;-62
2022/01/16 07:05:25;;;;;;;13.40;5.80;;;3.20;99.90;;;;;;4948564;28;20098;-61
2022/01/16 07:07:51;;;;;;;12.00;6.60;;;3.20;99.90;;;;;;4957772;28;20026;-62
2022/01/16 07:10:17;;;;;;;22.45;8.98;;;3.20;99.90;;;;;;4960480;28;20019;-61
2022/01/16 07:12:43;;;;;;;10.43;5.13;;;3.20;99.90;;;;;;4967895;28;20062;-61
2022/01/16 07:15:09;;;;;;;11.18;5.90;;;3.20;99.90;;;;;;4959995;28;20110;-61
2022/01/16 07:17:35;;;;;;;11.55;5.15;;;3.30;99.90;;;;;;4964693;28;20050;-61
2022/01/16 07:20:03;;;;;;;12.18;6.65;;;3.30;99.90;;;;;;4960014;28;20031;-61
2022/01/16 07:22:28;;;;;;;14.77;7.75;;;3.30;99.90;;;;;;4965282;28;20027;-61
2022/01/16 07:24:54;;;;;;;18.60;6.82;;;3.30;99.90;;;;;;4964898;28;20026;-61
2022/01/16 07:27:20;;;;;;;21.52;8.43;;;3.30;99.90;;;;;;4967011;28;20057;-61
2022/01/16 07:29:46;;;;;;;17.70;6.70;;;3.30;99.90;;;;;;4958942;28;20027;-61
2022/01/16 07:32:12;;;;;;;14.70;4.85;;;3.30;99.90;;;;;;4930185;28;20031;-61
2022/01/16 07:34:37;;;;;;;20.60;7.72;;;3.30;99.90;;;;;;4962088;28;20471;-61
2022/01/16 07:37:03;;;;;;;11.32;5.00;;;3.30;99.90;;;;;;4960252;28;20018;-61
2022/01/16 07:39:30;;;;;;;18.00;7.43;;;3.40;99.90;;;;;;4966347;28;20082;-61
2022/01/16 07:41:56;;;;;;;18.73;7.50;;;3.40;99.90;;;;;;4941557;28;20024;-61
2022/01/16 07:44:22;;;;;;;17.73;4.70;;;3.50;99.90;;;;;;4943897;28;20024;-61
2022/01/16 07:46:47;;;;;;;19.90;9.15;;;3.50;99.90;;;;;;4967474;28;20027;-61
2022/01/16 07:49:13;;;;;;;25.42;6.28;;;3.50;99.90;;;;;;4961916;28;20035;-61
2022/01/16 07:51:38;;;;;;;8.00;3.60;;;3.50;99.90;;;;;;4963156;28;20430;-61
2022/01/16 07:54:04;;;;;;;25.90;8.23;;;3.50;99.90;;;;;;4962446;28;20026;-61
2022/01/16 07:56:30;;;;;;;19.20;8.88;;;3.50;99.90;;;;;;4967305;28;20027;-61
2022/01/16 07:58:55;;;;;;;25.58;9.00;;;3.50;99.90;;;;;;4958518;28;20089;-61
2022/01/16 08:01:21;;;;;;;19.10;5.72;;;3.50;99.90;;;;;;4950947;28;20030;-61
2022/01/16 08:03:47;;;;;;;12.30;5.40;;;3.50;99.90;;;;;;4943372;28;20035;-61
2022/01/16 08:06:15;;;;;;;11.27;5.78;;;3.50;99.90;;;;;;4936824;28;20043;-61
2022/01/16 08:08:41;;;;;;;7.82;4.68;;;3.60;99.90;;;;;;4941617;28;20035;-62
2022/01/16 08:11:09;;;;;;;15.07;4.88;;;3.60;99.90;;;;;;4949466;28;20408;-62
2022/01/16 08:13:35;;;;;;;19.45;7.82;;;3.60;99.90;;;;;;4945841;28;20018;-64
2022/01/16 08:16:03;;;;;;;19.10;8.65;;;3.60;99.90;;;;;;4946823;28;20027;-61
2022/01/16 08:18:29;;;;;;;23.45;7.95;;;3.60;99.90;;;;;;4955558;28;20031;-61
2022/01/16 08:20:54;;;;;;;14.48;6.65;;;3.60;99.90;;;;;;4950725;28;20583;-61
2022/01/16 08:23:20;;;;;;;10.80;5.97;;;3.60;99.90;;;;;;4945588;28;20031;-61
2022/01/16 08:25:46;;;;;;;20.88;10.52;;;3.60;99.90;;;;;;4943797;28;20028;-61
2022/01/16 08:28:11;;;;;;;29.23;10.75;;;3.70;99.90;;;;;;4944695;28;20056;-61
2022/01/16 08:30:37;;;;;;;12.48;6.38;;;3.70;99.90;;;;;;4956433;28;20476;-61
2022/01/16 08:33:03;;;;;;;29.98;8.23;;;3.70;99.90;;;;;;4944414;28;20115;-61
2022/01/16 08:35:28;;;;;;;17.35;5.60;;;3.70;99.90;;;;;;4949113;28;20023;-62
2022/01/16 08:37:54;;;;;;;7.80;4.65;;;3.70;99.90;;;;;;4951868;28;20031;-61
2022/01/16 08:40:20;;;;;;;35.88;9.70;;;3.80;99.90;;;;;;4952859;28;20035;-61
2022/01/16 08:42:46;;;;;;;8.57;3.03;;;3.80;99.90;;;;;;4942238;28;20107;-61
2022/01/16 08:45:11;;;;;;;17.98;8.55;;;3.80;99.90;;;;;;4937605;28;20069;-62
2022/01/16 08:47:37;;;;;;;15.48;6.63;;;3.80;99.90;;;;;;4959539;28;20031;-62
2022/01/16 08:50:05;;;;;;;16.75;5.00;;;3.80;99.90;;;;;;4961450;28;20115;-61
2022/01/16 08:52:30;;;;;;;14.98;4.45;;;3.80;99.90;;;;;;4961513;28;20022;-61
2022/01/16 08:54:56;;;;;;;22.10;7.95;;;3.80;99.90;;;;;;4949958;28;20027;-61
2022/01/16 08:57:22;;;;;;;18.58;6.53;;;3.80;99.90;;;;;;4952584;28;20110;-61
2022/01/16 08:59:48;;;;;;;15.55;4.22;;;3.80;99.90;;;;;;4953920;28;20474;-62
2022/01/16 09:02:13;;;;;;;13.70;4.45;;;3.80;99.90;;;;;;4943344;28;20650;-61
2022/01/16 09:04:39;;;;;;;26.65;10.07;;;3.90;99.90;;;;;;4946065;28;20047;-62
2022/01/16 09:07:05;;;;;;;20.20;7.50;;;3.90;99.90;;;;;;4943366;28;20551;-62
2022/01/16 09:09:31;;;;;;;17.20;6.57;;;3.90;99.90;;;;;;4947918;28;20032;-61
2022/01/16 09:11:57;;;;;;;14.73;6.47;;;4.00;99.90;;;;;;4947285;28;20046;-61
2022/01/16 09:14:23;;;;;;;22.23;5.85;;;4.00;99.90;;;;;;4957656;28;20022;-61
2022/01/16 09:16:48;;;;;;;16.45;8.20;;;4.10;99.90;;;;;;4947556;28;20039;-61
2022/01/16 09:19:14;;;;;;;18.88;7.13;;;4.20;99.90;;;;;;4950775;28;20023;-62
2022/01/16 09:21:40;;;;;;;10.38;4.70;;;4.20;99.90;;;;;;4959253;28;20039;-61
2022/01/16 09:24:06;;;;;;;16.17;7.38;;;4.30;99.90;;;;;;4957369;28;20050;-62
2022/01/16 09:26:31;;;;;;;18.95;6.75;;;4.30;99.90;;;;;;4964310;28;20046;-61
2022/01/16 09:28:57;;;;;;;35.58;8.00;;;4.30;99.90;;;;;;4957486;28;20097;-61
2022/01/16 09:31:23;;;;;;;24.35;10.18;;;4.40;99.90;;;;;;4945247;28;20062;-62
2022/01/16 09:33:48;;;;;;;24.98;7.30;;;4.40;99.90;;;;;;4949553;28;20435;-62
2022/01/16 09:36:14;;;;;;;20.92;8.05;;;4.30;99.90;;;;;;4947003;28;20023;-62
2022/01/16 09:38:40;;;;;;;20.58;6.85;;;4.30;99.90;;;;;;4943402;28;20078;-62
2022/01/16 09:41:06;;;;;;;14.82;7.53;;;4.40;99.90;;;;;;4948626;28;20031;-62
2022/01/16 09:43:34;;;;;;;29.15;9.73;;;4.40;99.90;;;;;;4945721;28;20020;-61
2022/01/16 09:46:00;;;;;;;11.60;6.80;;;4.40;99.90;;;;;;4933376;28;20031;-61
2022/01/16 09:48:26;;;;;;;12.77;5.00;;;4.50;99.90;;;;;;4949556;28;20589;-61
2022/01/16 09:50:52;;;;;;;5.03;2.92;;;4.50;99.90;;;;;;4962637;28;20031;-62
2022/01/16 09:53:19;;;;;;;14.55;7.13;;;4.50;99.90;;;;;;4958597;28;20383;-61
2022/01/16 09:55:45;;;;;;;18.05;5.72;;;4.60;99.90;;;;;;4962151;28;20038;-61
2022/01/16 09:58:11;;;;;;;16.52;6.85;;;4.60;99.90;;;;;;4963083;28;20027;-61
2022/01/16 10:00:36;;;;;;;15.80;7.30;;;4.60;99.90;;;;;;4960367;28;20051;-61
2022/01/16 10:03:03;;;;;;;21.17;4.50;;;4.70;99.90;;;;;;4955529;28;20395;-62
2022/01/16 10:05:35;;;;;;;6.07;3.42;;;4.70;99.90;;;;;;4953095;28;20056;-62
2022/01/16 10:08:09;;;;;;;18.95;7.72;;;4.80;99.90;;;;;;4927448;28;20063;-61
2022/01/16 10:10:37;;;;;;;14.95;7.15;;;4.80;99.90;;;;;;4947369;28;20031;-62
2022/01/16 10:13:24;;;;;;;10.75;4.80;;;4.80;99.90;;;;;;4963462;28;20022;-61
2022/01/16 10:15:54;;;;;;;12.18;5.40;;;4.90;99.90;;;;;;4960388;28;20147;-62
2022/01/16 10:18:33;;;;;;;18.30;4.45;;;4.90;99.90;;;;;;4956192;28;20047;-62
2022/01/16 10:20:59;;;;;;;8.55;4.32;;;4.90;99.90;;;;;;4936766;28;20039;-62
2022/01/16 10:23:25;;;;;;;18.27;7.07;;;4.90;99.90;;;;;;4947361;28;20085;-62
2022/01/16 10:25:51;;;;;;;9.63;5.57;;;4.80;99.90;;;;;;4953652;28;20026;-62
2022/01/16 10:28:25;;;;;;;8.70;3.90;;;4.90;99.90;;;;;;4962407;28;20047;-62
2022/01/16 10:30:54;;;;;;;14.32;4.95;;;4.90;99.90;;;;;;4961897;28;20602;-62
2022/01/16 10:33:22;;;;;;;12.05;5.88;;;4.90;99.90;;;;;;4939044;28;20047;-62
2022/01/16 10:35:50;;;;;;;17.42;5.68;;;4.90;99.90;;;;;;4929879;29;20130;-62
2022/01/16 10:38:28;;;;;;;12.15;5.53;;;4.90;99.90;;;;;;4941902;28;20167;-61
2022/01/16 10:40:56;;;;;;;17.38;6.07;;;5.00;99.90;;;;;;4949895;28;20023;-62
2022/01/16 10:43:42;;;;;;;16.63;7.40;;;5.00;99.90;;;;;;4949496;28;20030;-62
2022/01/16 10:46:10;;;;;;;13.77;4.18;;;5.00;99.90;;;;;;4923100;29;20054;-61
2022/01/16 10:48:36;;;;;;;16.98;5.63;;;5.10;99.90;;;;;;4928324;29;20556;-62
2022/01/16 10:51:01;;;;;;;13.82;3.97;;;5.20;99.90;;;;;;4947246;28;20035;-61
2022/01/16 10:53:29;;;;;;;32.55;8.52;;;5.30;99.90;;;;;;4946953;28;20024;-62
2022/01/16 10:55:57;;;;;;;11.50;5.40;;;5.40;99.90;;;;;;4946169;28;20121;-62
2022/01/16 10:58:28;;;;;;;12.30;5.00;;;5.40;99.90;;;;;;4952310;28;20111;-62
2022/01/16 11:01:03;;;;;;;9.50;4.07;;;5.40;99.90;;;;;;4942470;28;20035;-61
2022/01/16 11:03:37;;;;;;;9.25;4.18;;;5.40;99.90;;;;;;4941670;28;20390;-62
2022/01/16 11:06:03;;;;;;;10.35;4.90;;;5.40;99.90;;;;;;4946209;28;20031;-62
2022/01/16 11:08:28;;;;;;;11.95;6.05;;;5.40;99.90;;;;;;4942911;28;20023;-62
2022/01/16 11:10:59;;;;;;;15.95;7.32;;;5.40;99.90;;;;;;4951276;28;20479;-62
2022/01/16 11:13:32;;;;;;;10.82;4.93;;;5.40;99.90;;;;;;4951438;28;20027;-62
2022/01/16 11:15:59;;;;;;;16.33;6.45;;;5.50;99.90;;;;;;4945474;28;20028;-62
2022/01/16 11:18:26;;;;;;;17.17;5.65;;;5.40;99.90;;;;;;4953265;28;20490;-62
2022/01/16 11:21:13;;;;;;;9.25;5.30;;;5.50;99.90;;;;;;4940490;28;20059;-61
2022/01/16 11:23:49;;;;;;;14.52;6.88;;;5.50;99.90;;;;;;4946127;28;20027;-61
2022/01/16 11:26:17;;;;;;;14.85;5.03;;;5.60;99.90;;;;;;4947214;28;20031;-61
2022/01/16 11:28:43;;;;;;;7.60;4.80;;;5.70;99.90;;;;;;4946171;28;20055;-61
2022/01/16 11:31:13;;;;;;;18.50;8.48;;;5.80;99.90;;;;;;4940897;28;20040;-62
2022/01/16 11:33:40;;;;;;;13.50;5.60;;;5.90;99.90;;;;;;4946954;28;20023;-61
2022/01/16 11:36:13;;;;;;;11.82;5.72;;;6.00;99.90;;;;;;4930242;29;20086;-62
2022/01/16 11:38:52;;;;;;;18.92;7.50;;;6.00;99.90;;;;;;4949552;28;20236;-61
2022/01/16 11:41:32;;;;;;;19.92;7.60;;;5.90;99.90;;;;;;4944208;28;20078;-61
2022/01/16 11:44:00;;;;;;;17.50;4.00;;;5.90;99.90;;;;;;4948257;28;20975;-61
2022/01/16 11:46:28;;;;;;;19.70;5.55;;;5.90;99.90;;;;;;4945646;29;20494;-62
2022/01/16 11:49:05;;;;;;;8.95;4.32;;;6.00;99.90;;;;;;4950933;28;20019;-62
2022/01/16 11:51:37;;;;;;;13.25;4.93;;;5.90;99.90;;;;;;4931325;29;20027;-62
2022/01/16 11:54:11;;;;;;;20.70;7.03;;;5.80;99.90;;;;;;4951025;28;20019;-62
2022/01/16 11:56:40;;;;;;;14.60;4.95;;;5.80;99.90;;;;;;4941427;28;20020;-62
2022/01/16 11:59:11;;;;;;;14.77;5.13;;;5.80;99.90;;;;;;4948967;28;20046;-62
2022/01/16 12:01:56;;;;;;;10.40;5.50;;;5.80;99.90;;;;;;4950493;28;20023;-62
2022/01/16 12:04:31;;;;;;;5.05;2.45;;;5.90;99.90;;;;;;4949886;28;20031;-62
2022/01/16 12:07:20;;;;;;;8.95;4.13;;;5.80;99.90;;;;;;4945576;28;20031;-62
2022/01/16 12:09:57;;;;;;;19.23;7.07;;;5.90;99.90;;;;;;4929171;28;20034;-62
2022/01/16 12:12:22;;;;;;;7.60;4.28;;;5.90;99.90;;;;;;4951847;28;20551;-64
2022/01/16 12:15:00;;;;;;;7.38;3.65;;;5.90;99.90;;;;;;4948001;28;20031;-61
2022/01/16 12:17:29;;;;;;;21.33;7.97;;;6.00;99.90;;;;;;4946538;28;20070;-61
2022/01/16 12:19:56;;;;;;;5.67;2.83;;;6.00;99.90;;;;;;4952883;28;20066;-62
2022/01/16 12:22:41;;;;;;;14.52;5.10;;;6.00;99.90;;;;;;4946204;28;20031;-61
2022/01/16 12:25:08;;;;;;;10.65;4.30;;;6.00;99.90;;;;;;4948815;28;20039;-62
2022/01/16 12:27:44;;;;;;;7.25;3.63;;;6.10;99.90;;;;;;4954121;28;20054;-61
2022/01/16 12:30:22;;;;;;;14.43;4.78;;;6.10;99.90;;;;;;4947033;28;20027;-61
2022/01/16 12:33:09;;;;;;;22.20;6.93;;;6.20;99.90;;;;;;4943627;28;20035;-62
2022/01/16 12:35:54;;;;;;;18.30;6.82;;;6.10;99.90;;;;;;4947812;28;20027;-61
2022/01/16 12:38:33;;;;;;;16.25;7.32;;;6.00;99.90;;;;;;4948314;28;20032;-62
2022/01/16 12:41:09;;;;;;;15.15;5.65;;;6.00;99.90;;;;;;4946606;28;20440;-61
2022/01/16 12:43:43;;;;;;;17.77;5.63;;;6.00;99.90;;;;;;4946251;28;20079;-62
2022/01/16 12:46:14;;;;;;;12.57;4.43;;;6.00;99.90;;;;;;4947726;28;20038;-62
2022/01/16 12:48:43;;;;;;;9.65;4.22;;;5.90;99.90;;;;;;4945293;28;20031;-62
2022/01/16 12:51:09;;;;;;;21.00;8.23;;;5.90;99.90;;;;;;4948630;28;20042;-61
2022/01/16 12:53:47;;;;;;;19.38;7.88;;;6.00;99.90;;;;;;4946720;28;20027;-62
2022/01/16 12:56:26;;;;;;;16.75;7.45;;;5.90;99.90;;;;;;4947041;28;20110;-62
2022/01/16 12:59:09;;;;;;;13.57;5.63;;;5.90;99.90;;;;;;4945525;28;20055;-61
2022/01/16 13:01:35;;;;;;;16.40;3.55;;;5.70;99.90;;;;;;4950345;28;20022;-61
2022/01/16 13:04:01;;;;;;;18.40;6.57;;;5.70;99.90;;;;;;4947171;28;20107;-61
2022/01/16 13:06:28;;;;;;;8.05;4.75;;;5.70;99.90;;;;;;4946318;28;20118;-61
2022/01/16 13:08:54;;;;;;;23.67;7.78;;;5.70;99.90;;;;;;4944983;28;20024;-62
2022/01/16 13:11:20;;;;;;;17.95;7.35;;;5.60;99.90;;;;;;4945098;28;20074;-61
2022/01/16 13:13:47;;;;;;;17.90;7.95;;;5.60;99.90;;;;;;4951410;28;20479;-61
2022/01/16 13:16:35;;;;;;;17.73;5.80;;;5.50;99.90;;;;;;4945340;28;20400;-62
2022/01/16 13:19:03;;;;;;;21.33;7.03;;;5.50;99.90;;;;;;4945196;28;20038;-62
2022/01/16 13:21:48;;;;;;;12.70;6.40;;;5.50;99.90;;;;;;4947466;28;20023;-62
2022/01/16 13:24:32;;;;;;;12.98;6.25;;;5.50;99.90;;;;;;4945598;28;20076;-61
2022/01/16 13:26:59;;;;;;;23.45;7.10;;;5.40;99.90;;;;;;4946304;29;20086;-61